createdAt,value
2018-08-17T00:00:00.713Z,20.40
2018-08-17T00:02:29.200Z,20.40
2018-08-17T00:04:57.581Z,20.50
2018-08-17T00:07:26.016Z,20.40
2018-08-17T00:09:54.396Z,20.50
2018-08-17T00:12:23.505Z,20.40
2018-08-17T00:14:51.968Z,20.50
2018-08-17T00:17:20.412Z,20.50
2018-08-17T00:19:48.909Z,20.50
2018-08-17T00:22:17.393Z,20.50
2018-08-17T00:24:45.775Z,20.40
2018-08-17T00:27:14.184Z,20.50
2018-08-17T00:29:42.606Z,20.40
2018-08-17T00:32:11.039Z,20.50
2018-08-17T00:34:39.523Z,20.50
2018-08-17T00:37:07.952Z,20.50
2018-08-17T00:39:36.352Z,20.30
2018-08-17T00:42:04.759Z,20.20
2018-08-17T00:44:33.150Z,20.10
2018-08-17T00:47:01.620Z,20.10
2018-08-17T00:49:30.001Z,20.00
2018-08-17T00:51:58.445Z,20.10
2018-08-17T00:54:27.055Z,20.10
2018-08-17T00:56:55.464Z,20.20
2018-08-17T00:59:23.888Z,20.30
2018-08-17T01:01:52.270Z,20.30
2018-08-17T01:04:20.885Z,20.30
2018-08-17T01:06:49.315Z,20.20
2018-08-17T01:09:17.892Z,20.10
2018-08-17T01:11:46.315Z,20.00
2018-08-17T01:14:14.689Z,19.90
2018-08-17T01:16:43.180Z,19.80
2018-08-17T01:19:11.584Z,19.80
2018-08-17T01:21:39.984Z,19.70
2018-08-17T01:24:08.402Z,19.70
2018-08-17T01:26:36.828Z,19.70
2018-08-17T01:29:05.252Z,19.70
2018-08-17T01:31:33.732Z,19.70
2018-08-17T01:34:02.168Z,19.80
2018-08-17T01:36:30.584Z,19.70
2018-08-17T01:38:59.034Z,19.70
2018-08-17T01:41:27.428Z,19.80
2018-08-17T01:43:55.835Z,19.70
2018-08-17T01:46:24.233Z,19.70
2018-08-17T01:48:52.663Z,19.80
2018-08-17T01:51:21.064Z,19.90
2018-08-17T01:53:49.496Z,20.00
2018-08-17T01:56:17.908Z,20.10
2018-08-17T01:58:46.318Z,20.10
2018-08-17T02:01:14.909Z,20.20
2018-08-17T02:03:43.297Z,20.20
2018-08-17T02:06:11.856Z,20.20
2018-08-17T02:08:40.304Z,20.10
2018-08-17T02:11:08.989Z,20.10
2018-08-17T02:13:37.388Z,20.10
2018-08-17T02:16:05.779Z,20.10
2018-08-17T02:18:34.189Z,20.00
2018-08-17T02:21:02.616Z,20.00
2018-08-17T02:23:31.067Z,20.10
2018-08-17T02:25:59.478Z,20.00
2018-08-17T02:28:27.857Z,19.90
2018-08-17T02:30:56.308Z,19.90
2018-08-17T02:33:24.716Z,19.80
2018-08-17T02:35:53.158Z,19.80
2018-08-17T02:38:21.548Z,19.90
2018-08-17T02:40:49.990Z,19.90
2018-08-17T02:43:18.401Z,19.80
2018-08-17T02:45:46.813Z,19.80
2018-08-17T02:48:15.231Z,19.80
2018-08-17T02:50:43.649Z,19.70
2018-08-17T02:53:12.037Z,19.60
2018-08-17T02:55:40.473Z,19.50
2018-08-17T02:58:08.884Z,19.40
2018-08-17T03:00:37.621Z,19.40
2018-08-17T03:03:06.272Z,19.30
2018-08-17T03:05:34.675Z,19.30
2018-08-17T03:08:03.126Z,19.20
2018-08-17T03:10:31.531Z,19.20
2018-08-17T03:12:59.935Z,19.20
2018-08-17T03:15:28.385Z,19.10
2018-08-17T03:17:56.902Z,19.00
2018-08-17T03:20:25.320Z,19.00
2018-08-17T03:22:53.713Z,19.00
2018-08-17T03:25:22.137Z,19.00
2018-08-17T03:27:50.568Z,19.10
2018-08-17T03:30:19.007Z,19.00
2018-08-17T03:32:47.436Z,19.10
2018-08-17T03:35:15.868Z,19.10
2018-08-17T03:37:44.394Z,19.00
2018-08-17T03:40:12.779Z,19.00
2018-08-17T03:42:41.224Z,19.00
2018-08-17T03:45:09.646Z,18.90
2018-08-17T03:47:38.029Z,18.90
2018-08-17T03:50:07.447Z,18.90
2018-08-17T03:52:35.882Z,18.90
2018-08-17T03:55:04.632Z,18.80
2018-08-17T03:57:33.260Z,18.80
2018-08-17T04:00:01.685Z,18.80
2018-08-17T04:02:30.925Z,18.80
2018-08-17T04:04:59.334Z,18.80
2018-08-17T04:07:27.804Z,18.80
2018-08-17T04:09:56.264Z,18.80
2018-08-17T04:12:24.755Z,18.80
2018-08-17T04:14:54.056Z,18.80
2018-08-17T04:17:23.142Z,18.90
2018-08-17T04:19:51.880Z,18.80
2018-08-17T04:22:20.502Z,18.80
2018-08-17T04:24:50.681Z,18.80
2018-08-17T04:27:19.682Z,18.90
2018-08-17T04:29:50.486Z,18.90
2018-08-17T04:32:19.136Z,19.00
2018-08-17T04:34:48.622Z,18.90
2018-08-17T04:37:18.508Z,18.90
2018-08-17T04:39:47.276Z,18.90
2018-08-17T04:42:22.857Z,18.90
2018-08-17T04:44:51.529Z,19.00
2018-08-17T04:47:20.232Z,19.00
2018-08-17T04:49:48.670Z,19.00
2018-08-17T04:52:17.503Z,19.00
2018-08-17T04:54:45.968Z,19.00
2018-08-17T04:57:14.461Z,19.10
2018-08-17T04:59:42.948Z,19.20
2018-08-17T05:02:11.628Z,19.20
2018-08-17T05:04:40.556Z,19.20
2018-08-17T05:07:10.117Z,19.20
2018-08-17T05:09:38.527Z,19.10
2018-08-17T05:12:07.219Z,19.00
2018-08-17T05:14:35.769Z,19.10
2018-08-17T05:17:04.418Z,19.20
2018-08-17T05:19:32.838Z,19.30
2018-08-17T05:22:01.300Z,19.50
2018-08-17T05:24:29.903Z,19.40
2018-08-17T05:26:58.312Z,19.60
2018-08-17T05:29:26.728Z,19.70
2018-08-17T05:31:55.201Z,19.60
2018-08-17T05:34:23.617Z,19.60
2018-08-17T05:36:52.206Z,19.80
2018-08-17T05:39:20.655Z,20.00
2018-08-17T05:41:49.264Z,20.10
2018-08-17T05:44:17.704Z,20.00
2018-08-17T05:46:46.181Z,20.10
2018-08-17T05:49:14.627Z,20.00
2018-08-17T05:51:43.040Z,19.80
2018-08-17T05:54:11.409Z,19.90
2018-08-17T05:56:39.899Z,20.00
2018-08-17T05:59:08.260Z,19.80
2018-08-17T06:01:36.656Z,19.70
2018-08-17T06:04:05.132Z,19.70
2018-08-17T06:06:33.560Z,19.80
2018-08-17T06:09:02.010Z,19.80
2018-08-17T06:11:30.479Z,19.70
2018-08-17T06:13:58.854Z,19.60
2018-08-17T06:16:27.952Z,19.60
2018-08-17T06:18:56.395Z,19.40
2018-08-17T06:21:24.856Z,19.20
2018-08-17T06:23:53.752Z,19.00
2018-08-17T06:26:22.138Z,18.80
2018-08-17T06:28:50.690Z,18.80
2018-08-17T06:31:19.148Z,18.70
2018-08-17T06:33:47.820Z,18.60
2018-08-17T06:36:16.322Z,18.70
2018-08-17T06:38:44.745Z,18.70
2018-08-17T06:41:13.143Z,18.60
2018-08-17T06:43:41.647Z,18.50
2018-08-17T06:46:10.088Z,18.40
2018-08-17T06:48:38.508Z,18.40
2018-08-17T06:51:06.982Z,18.30
2018-08-17T06:53:35.325Z,18.30
2018-08-17T06:56:03.797Z,18.20
2018-08-17T06:58:32.191Z,18.20
2018-08-17T07:01:00.619Z,18.10
2018-08-17T07:03:29.017Z,18.00
2018-08-17T07:05:57.629Z,17.90
2018-08-17T07:08:26.032Z,17.90
2018-08-17T07:10:54.447Z,17.90
2018-08-17T07:13:22.880Z,17.90
2018-08-17T07:15:51.453Z,18.00
2018-08-17T07:18:20.040Z,18.00
2018-08-17T07:20:48.454Z,18.00
2018-08-17T07:23:16.925Z,18.00
2018-08-17T07:25:45.380Z,18.20
2018-08-17T07:28:13.849Z,18.30
2018-08-17T07:30:42.244Z,18.50
2018-08-17T07:33:11.144Z,18.60
2018-08-17T07:35:39.559Z,18.90
2018-08-17T07:38:08.040Z,19.00
2018-08-17T07:40:36.439Z,19.10
2018-08-17T07:43:04.874Z,19.30
2018-08-17T07:45:33.280Z,19.20
2018-08-17T07:48:01.723Z,19.20
2018-08-17T07:50:30.033Z,19.30
2018-08-17T07:52:58.462Z,19.30
2018-08-17T07:55:26.848Z,19.40
2018-08-17T07:57:55.320Z,19.60
2018-08-17T08:00:23.741Z,19.60
2018-08-17T08:02:52.200Z,19.30
2018-08-17T08:05:20.668Z,19.40
2018-08-17T08:07:49.096Z,19.50
2018-08-17T08:10:17.557Z,19.30
2018-08-17T08:12:46.124Z,19.50
2018-08-17T08:15:14.523Z,19.80
2018-08-17T08:17:43.026Z,19.90
2018-08-17T08:20:22.806Z,20.10
2018-08-17T08:23:01.247Z,20.10
2018-08-17T08:25:29.616Z,20.20
2018-08-17T08:27:58.068Z,20.30
2018-08-17T08:30:26.451Z,20.60
2018-08-17T08:32:54.879Z,20.80
2018-08-17T08:35:23.266Z,21.00
2018-08-17T08:37:51.726Z,21.00
2018-08-17T08:40:20.124Z,21.10
2018-08-17T08:42:48.613Z,20.90
2018-08-17T08:45:17.144Z,20.80
2018-08-17T08:47:45.528Z,20.50
2018-08-17T08:50:14.004Z,20.70
2018-08-17T08:52:42.504Z,20.60
2018-08-17T08:55:10.963Z,20.60
2018-08-17T08:57:39.756Z,20.90
2018-08-17T09:00:09.175Z,21.10
2018-08-17T09:02:37.964Z,21.00
2018-08-17T09:05:06.641Z,21.00
2018-08-17T09:07:35.340Z,20.90
2018-08-17T09:10:04.553Z,21.00
2018-08-17T09:12:32.949Z,20.90
2018-08-17T09:15:01.462Z,20.90
2018-08-17T09:17:30.175Z,20.90
2018-08-17T09:19:58.640Z,21.10
2018-08-17T09:22:27.052Z,21.20
2018-08-17T09:24:55.451Z,21.40
2018-08-17T09:27:23.832Z,21.20
2018-08-17T09:29:52.250Z,21.60
2018-08-17T09:32:20.753Z,21.80
2018-08-17T09:34:49.197Z,21.80
2018-08-17T09:37:17.686Z,21.70
2018-08-17T09:39:46.116Z,22.00
2018-08-17T09:42:14.578Z,21.90
2018-08-17T09:44:42.978Z,21.70
2018-08-17T09:47:11.544Z,21.60
2018-08-17T09:49:39.950Z,21.60
2018-08-17T09:52:08.501Z,21.80
2018-08-17T09:54:37.008Z,21.60
2018-08-17T09:57:05.887Z,21.40
2018-08-17T09:59:34.556Z,21.50
2018-08-17T10:02:09.636Z,21.20
2018-08-17T10:04:41.433Z,20.80
2018-08-17T10:07:15.697Z,20.60
2018-08-17T10:09:49.373Z,20.50
2018-08-17T10:12:17.857Z,20.40
2018-08-17T10:14:46.253Z,20.40
2018-08-17T10:17:14.710Z,20.40
2018-08-17T10:19:43.125Z,20.40
2018-08-17T10:22:11.645Z,20.40
2018-08-17T10:24:39.938Z,20.30
2018-08-17T10:27:08.590Z,20.50
2018-08-17T10:29:38.772Z,20.60
2018-08-17T10:32:07.688Z,20.50
2018-08-17T10:34:36.118Z,20.80
2018-08-17T10:37:04.528Z,21.00
2018-08-17T10:39:32.950Z,21.20
2018-08-17T10:42:01.316Z,21.60
2018-08-17T10:44:29.919Z,22.00
2018-08-17T10:46:58.304Z,21.80
2018-08-17T10:49:27.069Z,21.10
2018-08-17T10:51:57.100Z,20.90
2018-08-17T10:54:26.173Z,20.60
2018-08-17T10:56:54.724Z,20.30
2018-08-17T10:59:23.149Z,20.30
2018-08-17T11:01:51.590Z,20.30
2018-08-17T11:04:20.064Z,20.40
2018-08-17T11:06:48.492Z,20.50
2018-08-17T11:09:17.283Z,20.70
2018-08-17T11:11:45.664Z,20.90
2018-08-17T11:14:14.141Z,21.30
2018-08-17T11:16:42.577Z,21.60
2018-08-17T11:19:10.985Z,21.50
2018-08-17T11:21:39.396Z,21.00
2018-08-17T11:24:07.844Z,21.70
2018-08-17T11:26:37.644Z,22.00
2018-08-17T11:29:06.112Z,22.00
2018-08-17T11:31:34.526Z,21.90
2018-08-17T11:34:02.982Z,22.10
2018-08-17T11:36:31.400Z,21.80
2018-08-17T11:38:59.800Z,21.40
2018-08-17T11:41:28.272Z,21.40
2018-08-17T11:43:58.116Z,21.60
2018-08-17T11:46:26.588Z,22.00
2018-08-17T11:48:54.964Z,21.90
2018-08-17T11:51:23.454Z,21.60
2018-08-17T11:53:51.994Z,21.80
2018-08-17T11:56:20.421Z,21.80
2018-08-17T11:58:48.812Z,22.30
2018-08-17T12:01:22.573Z,22.40
2018-08-17T12:03:51.032Z,22.50
2018-08-17T12:06:19.450Z,22.20
2018-08-17T12:08:47.850Z,22.40
2018-08-17T12:11:16.363Z,22.50
2018-08-17T12:13:44.763Z,22.60
2018-08-17T12:16:13.240Z,23.10
2018-08-17T12:18:41.715Z,22.60
2018-08-17T12:21:10.120Z,23.00
2018-08-17T12:23:38.532Z,23.20
2018-08-17T12:26:07.174Z,23.40
2018-08-17T12:28:35.560Z,23.30
2018-08-17T12:31:04.046Z,23.60
2018-08-17T12:33:32.615Z,23.80
2018-08-17T12:36:01.018Z,23.80
2018-08-17T12:38:29.473Z,23.70
2018-08-17T12:40:58.745Z,23.80
2018-08-17T12:43:38.947Z,24.00
2018-08-17T12:46:07.566Z,23.90
2018-08-17T12:48:35.975Z,23.00
2018-08-17T12:51:05.493Z,22.80
2018-08-17T12:53:34.715Z,22.80
2018-08-17T12:56:03.157Z,22.90
2018-08-17T12:58:31.559Z,23.20
2018-08-17T13:01:00.040Z,23.10
2018-08-17T13:03:28.480Z,23.10
2018-08-17T13:05:56.928Z,23.40
2018-08-17T13:08:25.331Z,23.20
2018-08-17T13:10:55.371Z,23.00
2018-08-17T13:13:23.761Z,22.60
2018-08-17T13:15:57.339Z,22.90
2018-08-17T13:18:25.768Z,22.80
2018-08-17T13:20:54.173Z,22.70
2018-08-17T13:23:22.605Z,22.90
2018-08-17T13:25:51.024Z,22.90
2018-08-17T13:28:19.438Z,22.70
2018-08-17T13:30:47.846Z,22.80
2018-08-17T13:33:16.421Z,23.20
2018-08-17T13:35:45.085Z,22.50
2018-08-17T13:38:13.545Z,22.70
2018-08-17T13:40:42.066Z,22.50
2018-08-17T13:43:10.517Z,22.10
2018-08-17T13:45:38.933Z,22.40
2018-08-17T13:48:07.758Z,22.60
2018-08-17T13:50:36.637Z,22.80
2018-08-17T13:53:05.379Z,22.70
2018-08-17T13:55:33.848Z,22.90
2018-08-17T13:58:02.290Z,22.90
2018-08-17T14:00:30.713Z,23.10
2018-08-17T14:02:59.204Z,23.40
2018-08-17T14:05:27.663Z,22.80
2018-08-17T14:07:56.064Z,23.00
2018-08-17T14:10:24.508Z,22.90
2018-08-17T14:12:52.959Z,23.10
2018-08-17T14:15:21.415Z,23.40
2018-08-17T14:17:49.881Z,23.30
2018-08-17T14:20:18.283Z,23.30
2018-08-17T14:22:46.777Z,23.10
2018-08-17T14:25:15.308Z,23.10
2018-08-17T14:27:43.752Z,23.20
2018-08-17T14:30:15.620Z,23.30
2018-08-17T14:32:44.298Z,23.20
2018-08-17T14:35:13.272Z,23.10
2018-08-17T14:37:42.168Z,23.50
2018-08-17T14:40:11.020Z,23.60
2018-08-17T14:42:40.185Z,23.40
2018-08-17T14:45:09.890Z,23.40
2018-08-17T14:47:38.552Z,23.40
2018-08-17T14:50:09.074Z,23.40
2018-08-17T14:52:38.500Z,23.30
2018-08-17T14:55:07.497Z,23.30
2018-08-17T14:57:35.944Z,23.50
2018-08-17T15:00:06.392Z,23.30
2018-08-17T15:02:34.774Z,23.40
2018-08-17T15:05:03.216Z,23.60
2018-08-17T15:07:32.126Z,23.60
2018-08-17T15:10:00.554Z,23.40
2018-08-17T15:12:28.959Z,23.30
2018-08-17T15:14:57.378Z,23.10
2018-08-17T15:17:25.940Z,23.20
2018-08-17T15:19:54.484Z,23.20
2018-08-17T15:22:22.936Z,23.10
2018-08-17T15:24:51.527Z,23.20
2018-08-17T15:27:19.956Z,23.30
2018-08-17T15:29:48.431Z,23.30
2018-08-17T15:32:16.916Z,23.40
2018-08-17T15:34:45.309Z,23.80
2018-08-17T15:37:13.822Z,23.70
2018-08-17T15:39:42.237Z,23.50
2018-08-17T15:42:10.680Z,23.40
2018-08-17T15:44:39.087Z,23.30
2018-08-17T15:47:07.544Z,23.10
2018-08-17T15:49:36.831Z,22.90
2018-08-17T15:52:06.567Z,22.90
2018-08-17T15:54:34.866Z,22.90
2018-08-17T15:57:03.288Z,22.60
2018-08-17T15:59:31.841Z,22.60
2018-08-17T16:02:00.289Z,22.50
2018-08-17T16:04:28.752Z,22.50
2018-08-17T16:06:57.176Z,22.60
2018-08-17T16:09:25.578Z,22.60
2018-08-17T16:11:54.173Z,22.30
2018-08-17T16:14:22.636Z,22.40
2018-08-17T16:16:51.039Z,22.40
2018-08-17T16:19:19.467Z,22.40
2018-08-17T16:21:47.878Z,22.30
2018-08-17T16:24:16.415Z,22.20
2018-08-17T16:26:44.822Z,22.40
2018-08-17T16:29:13.227Z,22.40
2018-08-17T16:31:42.490Z,22.30
2018-08-17T16:34:11.159Z,22.30
2018-08-17T16:36:41.793Z,22.30
2018-08-17T16:39:18.457Z,22.40
2018-08-17T16:41:46.900Z,22.40
2018-08-17T16:44:15.321Z,22.40
2018-08-17T16:46:44.100Z,22.50
2018-08-17T16:49:12.597Z,22.50
2018-08-17T16:51:41.018Z,22.60
2018-08-17T16:54:09.444Z,22.50
2018-08-17T16:56:37.923Z,22.50
2018-08-17T16:59:06.954Z,22.50
2018-08-17T17:01:35.385Z,22.30
2018-08-17T17:04:04.205Z,22.10
2018-08-17T17:06:32.877Z,22.00
2018-08-17T17:09:04.641Z,22.10
2018-08-17T17:11:33.324Z,22.00
2018-08-17T17:14:01.872Z,22.10
2018-08-17T17:16:37.700Z,22.00
2018-08-17T17:19:11.892Z,22.00
2018-08-17T17:21:41.970Z,21.80
2018-08-17T17:24:10.436Z,21.80
2018-08-17T17:26:38.820Z,21.80
2018-08-17T17:29:07.628Z,21.80
2018-08-17T17:31:36.053Z,21.90
2018-08-17T17:34:04.478Z,21.80
2018-08-17T17:36:32.984Z,21.80
2018-08-17T17:39:01.559Z,21.90
2018-08-17T17:41:29.997Z,21.90
2018-08-17T17:43:58.410Z,21.90
2018-08-17T17:46:26.833Z,21.80
2018-08-17T17:48:55.212Z,21.70
2018-08-17T17:51:23.624Z,21.70
2018-08-17T17:53:52.015Z,21.80
2018-08-17T17:56:20.441Z,21.70
2018-08-17T17:58:48.828Z,21.60
2018-08-17T18:01:17.296Z,21.70
2018-08-17T18:03:46.276Z,21.70
2018-08-17T18:06:14.720Z,21.70
2018-08-17T18:08:43.174Z,21.60
2018-08-17T18:11:11.581Z,21.60
2018-08-17T18:13:39.984Z,21.50
2018-08-17T18:16:08.448Z,21.50
2018-08-17T18:18:36.902Z,21.40
2018-08-17T18:21:05.388Z,21.30
2018-08-17T18:23:33.820Z,21.20
2018-08-17T18:26:02.436Z,21.20
2018-08-17T18:28:30.915Z,21.10
2018-08-17T18:30:59.381Z,21.20
2018-08-17T18:33:27.872Z,21.10
2018-08-17T18:35:56.286Z,21.00
2018-08-17T18:38:24.692Z,20.90
2018-08-17T18:40:53.098Z,20.80
2018-08-17T18:43:21.527Z,20.50
2018-08-17T18:45:49.974Z,20.40
2018-08-17T18:48:18.456Z,20.20
2018-08-17T18:50:46.848Z,20.10
2018-08-17T18:53:15.243Z,20.00
2018-08-17T18:55:43.657Z,19.90
2018-08-17T18:58:12.075Z,19.80
2018-08-17T19:00:40.509Z,19.70
2018-08-17T19:03:08.960Z,19.50
2018-08-17T19:05:37.417Z,19.50
2018-08-17T19:08:05.902Z,19.30
2018-08-17T19:10:34.475Z,19.20
2018-08-17T19:13:02.829Z,19.10
2018-08-17T19:15:39.437Z,19.00
2018-08-17T19:18:07.748Z,18.90
2018-08-17T19:20:36.200Z,18.80
2018-08-17T19:23:04.619Z,18.80
2018-08-17T19:25:34.644Z,18.70
2018-08-17T19:28:03.091Z,18.60
2018-08-17T19:30:33.530Z,18.60
2018-08-17T19:33:08.245Z,18.50
2018-08-17T19:35:36.825Z,18.40
2018-08-17T19:38:05.315Z,18.30
2018-08-17T19:40:33.753Z,18.30
2018-08-17T19:43:02.312Z,18.20
2018-08-17T19:45:30.831Z,18.20
2018-08-17T19:47:59.270Z,18.10
2018-08-17T19:50:27.706Z,18.00
2018-08-17T19:52:56.181Z,18.00
2018-08-17T19:55:24.560Z,17.90
2018-08-17T19:57:52.960Z,17.90
2018-08-17T20:00:21.578Z,17.80
2018-08-17T20:02:50.013Z,17.80
2018-08-17T20:05:18.416Z,17.80
2018-08-17T20:07:47.044Z,17.90
2018-08-17T20:10:15.535Z,17.90
2018-08-17T20:12:44.152Z,17.80
2018-08-17T20:15:12.568Z,17.80
2018-08-17T20:17:45.493Z,17.70
2018-08-17T20:20:13.960Z,17.60
2018-08-17T20:22:42.393Z,17.60
2018-08-17T20:25:16.368Z,17.50
2018-08-17T20:27:45.664Z,17.50
2018-08-17T20:30:19.365Z,17.40
2018-08-17T20:32:47.871Z,17.30
2018-08-17T20:35:16.428Z,17.30
2018-08-17T20:37:48.203Z,17.20
2018-08-17T20:40:17.097Z,17.20
2018-08-17T20:42:45.860Z,17.20
2018-08-17T20:45:14.337Z,17.10
2018-08-17T20:47:43.451Z,17.10
2018-08-17T20:50:14.404Z,17.10
2018-08-17T20:52:49.213Z,17.00
2018-08-17T20:55:18.217Z,17.00
2018-08-17T20:57:49.107Z,16.90
2018-08-17T21:00:17.630Z,16.90
2018-08-17T21:02:46.489Z,16.90
2018-08-17T21:05:15.716Z,16.80
2018-08-17T21:07:44.295Z,16.80
2018-08-17T21:10:12.735Z,16.80
2018-08-17T21:12:41.192Z,16.70
2018-08-17T21:15:09.743Z,16.70
2018-08-17T21:17:38.136Z,16.70
2018-08-17T21:20:06.928Z,16.70
2018-08-17T21:22:35.370Z,16.60
2018-08-17T21:25:03.933Z,16.60
2018-08-17T21:27:32.983Z,16.60
2018-08-17T21:30:02.449Z,16.60
2018-08-17T21:32:30.901Z,16.50
2018-08-17T21:34:59.358Z,16.50
2018-08-17T21:37:28.332Z,16.40
2018-08-17T21:39:57.009Z,16.40
2018-08-17T21:42:25.436Z,16.40
2018-08-17T21:44:53.876Z,16.40
2018-08-17T21:47:22.430Z,16.40
2018-08-17T21:49:54.109Z,16.40
2018-08-17T21:52:23.996Z,16.30
2018-08-17T21:54:52.423Z,16.30
2018-08-17T21:57:20.893Z,16.30
2018-08-17T21:59:50.904Z,16.20
2018-08-17T22:02:20.540Z,16.20
2018-08-17T22:04:48.950Z,16.20
2018-08-17T22:07:21.500Z,16.20
2018-08-17T22:09:50.660Z,16.30
2018-08-17T22:12:19.091Z,16.30
2018-08-17T22:14:48.472Z,16.30
2018-08-17T22:17:29.963Z,16.30
2018-08-17T22:19:58.622Z,16.40
2018-08-17T22:22:27.053Z,16.20
2018-08-17T22:24:57.633Z,16.20
2018-08-17T22:27:27.164Z,16.10
2018-08-17T22:29:56.883Z,16.00
2018-08-17T22:32:25.844Z,16.00
2018-08-17T22:34:54.625Z,16.00
2018-08-17T22:37:23.187Z,15.90
2018-08-17T22:39:51.643Z,15.90
2018-08-17T22:42:21.932Z,15.90
2018-08-17T22:44:50.795Z,15.90
2018-08-17T22:47:22.508Z,15.80
2018-08-17T22:49:51.819Z,15.80
2018-08-17T22:52:20.282Z,15.70
2018-08-17T22:56:17.923Z,15.70
2018-08-17T22:58:48.872Z,15.70
2018-08-17T23:01:19.502Z,15.70
2018-08-17T23:03:54.453Z,15.60
2018-08-17T23:06:24.583Z,15.60
2018-08-17T23:08:52.997Z,15.60
2018-08-17T23:11:29.085Z,15.50
2018-08-17T23:14:00.319Z,15.50
2018-08-17T23:16:29.341Z,15.50
2018-08-17T23:18:57.765Z,15.50
2018-08-17T23:21:26.175Z,15.50
2018-08-17T23:23:54.773Z,15.50
2018-08-17T23:26:23.156Z,15.40
2018-08-17T23:28:51.577Z,15.40
2018-08-17T23:31:19.973Z,15.40
2018-08-17T23:33:48.380Z,15.40
2018-08-17T23:36:16.920Z,15.40
2018-08-17T23:38:45.352Z,15.40
2018-08-17T23:41:13.845Z,15.40
2018-08-17T23:43:42.189Z,15.40
2018-08-17T23:46:10.604Z,15.30
2018-08-17T23:48:39.012Z,15.30
2018-08-17T23:51:07.480Z,15.30
2018-08-17T23:53:35.986Z,15.30
2018-08-17T23:56:04.434Z,15.20
2018-08-17T23:58:32.861Z,15.20
